John P. Tully — CG2958 — position and weather

sailwx.info

Track history (hours):
 
Tides and Currents Weather Stations Pressure Air Temp Water Temp Dewpoint Dewpoint Depression Visibility Wind Speed Wind Dir Waves Ship Positions

Oceanographic research ship John P. Tully (Canada)

Detailed information on ship capabilities available from University of Delaware's Ocean Information Center.

Last reported at 2019-May-25 18:30 UTC. Time now 2019-May-25 18:57 UTC.
Position N 50°55' W 128°54'.

Length 68.9 m; beam 14.5 m; draft 4.5 m.

Type: SAR. MMSI: 316114000.

Date/timePositionNaut miles runAvg speedWind from/ knotsBaromVisibWave heightAir tempDewpointWater temp
2019-May-25 18:30N 50°55' W 128°54'4 7.5
2019-May-25 17:58N 50°54' W 128°48'4 7.8
2019-May-25 17:30N 50°53' W 128°42'1 2.6
2019-May-25 16:58N 50°53' W 128°40'4 7.6
2019-May-25 16:30N 50°55' W 128°44'5 9.4
2019-May-25 16:00N 50°59' W 128°50'2 3.8
2019-May-25 15:30N 50°60' W 128°52'2 3.8
2019-May-25 15:00N 51°01' W 128°49'5 9.1
2019-May-25 14:30N 51°04' W 128°44'1 1.7
2019-May-25 14:00N 51°05' W 128°43'4 8.3
2019-May-25 13:30N 51°07' W 128°38'2 3.5
2019-May-25 13:00N 51°09' W 128°36'1 2.8
2019-May-25 12:30N 51°09' W 128°34'4 8.7
2019-May-25 12:01N 51°12' W 128°29'1 1.5
2019-May-25 11:30N 51°13' W 128°28'0 0.1
2019-May-25 11:01N 51°13' W 128°28'4 8.5
2019-May-25 10:30N 51°15' W 128°23'2 4.0
2019-May-25 10:00N 51°16' W 128°20'1 2.8
2019-May-25 09:30N 51°16' W 128°18'3 6.9
2019-May-25 09:00N 51°13' W 128°14'3 6.9
2019-May-25 08:30N 51°11' W 128°10'4 7.2
2019-May-25 07:55N 51°08' W 128°05'4 7.3
2019-May-25 07:21N 51°06' W 128°00'3 7.3
2019-May-25 06:58N 51°04' W 127°57'4 7.5
2019-May-25 06:30N 51°01' W 127°53'2 3.9
2019-May-25 06:00N 51°00' W 127°50'0 0.1
2019-May-25 05:30N 51°00' W 127°50'3 5.2
2019-May-25 05:00N 50°59' W 127°47'2 4.6
2019-May-25 04:30N 50°57' W 127°44'4 7.1
2019-May-25 04:00N 50°55' W 127°39'4 7.8
2019-May-25 03:30N 50°53' W 127°34'4 7.7
2019-May-25 02:57N 50°51' W 127°28'4 8.0
2019-May-25 02:28N 50°53' W 127°23'2 2.9
2019-May-25 01:49N 50°55' W 127°21'0 0.1
2019-May-25 01:25N 50°55' W 127°21'0 0.0
2019-May-25 00:55N 50°55' W 127°21'0 0.0
2019-May-25 00:13N 50°55' W 127°21'0 0.0
2019-May-24 23:13N 50°55' W 127°21'0 0.0
2019-May-24 22:49N 50°55' W 127°21'0 0.0
2019-May-24 22:25N 50°55' W 127°21'0 0.0
2019-May-24 22:01N 50°55' W 127°21'0 0.0
2019-May-24 21:31N 50°55' W 127°21'4 7.9
2019-May-24 21:00N 50°52' W 127°25'510.2
2019-May-24 20:30N 50°52' W 127°33'510.1
2019-May-24 20:00N 50°55' W 127°39'2 3.4
2019-May-24 19:31N 50°56' W 127°41'1 2.1
2019-May-24 19:01N 50°57' W 127°42'1 1.4
2019-May-24 18:30N 50°56' W 127°41'1 2.8
2019-May-24 18:00N 50°55' W 127°40'4 7.8
2019-May-24 17:30N 50°53' W 127°35'4 8.2
2019-May-24 17:00N 50°51' W 127°29'5 9.2
2019-May-24 16:30N 50°52' W 127°22'3 6.7
2019-May-24 16:00N 50°49' W 127°20'4 7.2
2019-May-24 15:30N 50°47' W 127°16'5 8.8
2019-May-24 14:59N 50°45' W 127°09'6 9.0
2019-May-24 14:17N 50°43' W 126°60'4 9.1
2019-May-24 13:52N 50°41' W 126°54'3 8.3
2019-May-24 13:27N 50°40' W 126°50'6 9.1
2019-May-24 12:48N 50°36' W 126°43'3 9.1
2019-May-24 12:26N 50°32' W 126°41'4 8.9
2019-May-24 12:00N 50°31' W 126°36'5 8.6
2019-May-24 11:27N 50°30' W 126°28'0 0.2
2019-May-24 10:59N 50°30' W 126°28'0 0.6
2019-May-24 10:30N 50°30' W 126°28'28 9.5
2019-May-24 07:32N 50°22' W 125°46'212.1
2019-May-24 07:21N 50°22' W 125°42'1010.7
2019-May-24 06:24N 50°20' W 125°27'4 9.9
2019-May-24 06:00N 50°17' W 125°24'510.0
2019-May-24 05:30N 50°12' W 125°22'510.0
2019-May-24 05:01N 50°07' W 125°20'5 9.8
2019-May-24 04:30N 50°04' W 125°15'4 8.9
2019-May-24 04:00N 49°60' W 125°12'510.1
2019-May-24 03:29N 49°56' W 125°06'611.0
2019-May-24 02:59N 49°52' W 124°60'510.8
2019-May-24 02:30N 49°49' W 124°53'4 7.8
2019-May-24 02:01N 49°47' W 124°48'1 2.9
2019-May-24 01:30N 49°48' W 124°50'2 3.4
2019-May-24 01:01N 49°49' W 124°52'1 1.8
2019-May-24 00:30N 49°49' W 124°50'3 6.9
2019-May-24 00:00N 49°47' W 124°46'4 8.6
2019-May-23 23:30N 49°44' W 124°41'0 0.9
2019-May-23 22:59N 49°44' W 124°41'0 0.1
2019-May-23 22:30N 49°44' W 124°41'4 8.2
2019-May-23 21:59N 49°40' W 124°37'5 9.6
2019-May-23 21:30N 49°36' W 124°34'6 9.6
2019-May-23 20:54N 49°31' W 124°29'3 7.9
2019-May-23 20:30N 49°28' W 124°30'0 0.0
2019-May-23 19:57N 49°28' W 124°30'1 1.8
2019-May-23 19:30N 49°29' W 124°29'5 9.3
2019-May-23 18:59N 49°32' W 124°25'11 8.4
2019-May-23 17:43N 49°29' W 124°09'2 7.6
2019-May-23 17:30N 49°29' W 124°07'5 9.8
2019-May-23 17:00N 49°34' W 124°09'5 9.7
2019-May-23 16:30N 49°37' W 124°14'3 6.0
2019-May-23 15:59N 49°40' W 124°16'0 0.1
2019-May-23 15:30N 49°40' W 124°16'1 1.9
2019-May-23 14:57N 49°40' W 124°15'4 8.0
2019-May-23 14:26N 49°36' W 124°11'4 8.0
2019-May-23 14:00N 49°33' W 124°08'5 7.8
2019-May-23 13:22N 49°29' W 124°05'3 7.9
2019-May-23 13:00N 49°26' W 124°05'4 8.3
2019-May-23 12:30N 49°22' W 124°05'0 0.4
2019-May-23 12:00N 49°22' W 124°05'1 1.3
2019-May-23 11:30N 49°22' W 124°04'4 8.2
2019-May-23 11:01N 49°20' W 123°58'4 7.8
2019-May-23 10:30N 49°18' W 123°53'4 7.8
2019-May-23 10:01N 49°16' W 123°48'2 4.6
2019-May-23 09:30N 49°15' W 123°45'0 0.2
2019-May-23 09:01N 49°15' W 123°45'0 0.3
2019-May-23 08:31N 49°15' W 123°45'2 4.4
2019-May-23 08:00N 49°13' W 123°43'5 9.1
2019-May-23 07:30N 49°10' W 123°38'5 9.1
2019-May-23 07:00N 49°07' W 123°33'5 9.3
2019-May-23 06:30N 49°03' W 123°29'2 4.7
2019-May-23 06:00N 49°02' W 123°26'0 0.2
2019-May-23 05:30N 49°02' W 123°26'0 0.2
2019-May-23 05:00N 49°02' W 123°26'4 8.0
2019-May-23 04:30N 48°59' W 123°22'4 9.0
2019-May-23 04:00N 48°56' W 123°17'5 9.0
2019-May-23 03:30N 48°53' W 123°11'5 9.2
2019-May-23 03:01N 48°50' W 123°06'5 9.3
2019-May-23 02:30N 48°48' W 122°60'713.3
2019-May-23 02:00N 48°44' W 123°08'611.5
2019-May-23 01:30N 48°40' W 123°15'713.0
2019-May-23 01:00N 48°34' W 123°12'612.7
2019-May-23 00:31N 48°28' W 123°10'713.3
2019-May-23 00:01N 48°23' W 123°16'3 6.6
2019-May-22 23:30N 48°23' W 123°21'4 7.5
2019-May-22 23:00N 48°24' W 123°16'3 6.6
2019-May-22 22:30N 48°26' W 123°12'611.3
2019-May-22 22:00N 48°32' W 123°13'510.4
2019-May-22 21:30N 48°37' W 123°15'0 0.8
2019-May-22 21:00N 48°36' W 123°14'0 0.8
2019-May-22 20:29N 48°37' W 123°15'4 8.7
2019-May-22 20:00N 48°41' W 123°16'5 9.3
2019-May-22 19:30N 48°45' W 123°20'610.9
2019-May-22 18:58N 48°42' W 123°29'3 6.3
2019-May-22 18:29N 48°40' W 123°30'0 0.9
2019-May-22 17:59N 48°40' W 123°29'2 3.2
2019-May-22 17:30N 48°39' W 123°27'0 0.0
2019-May-22 16:42N 48°39' W 123°27'0 0.0
2019-May-22 16:21N 48°39' W 123°27'0 0.0
2019-May-22 15:58N 48°39' W 123°27'0 0.0
2019-May-22 15:25N 48°39' W 123°27'0 0.0
2019-May-22 14:58N 48°39' W 123°27'0 0.0
2019-May-22 14:30N 48°39' W 123°27'0 0.0
2019-May-22 14:00N 48°39' W 123°27'0 0.0
2019-May-22 13:30N 48°39' W 123°27'0 0.0
2019-May-22 13:00N 48°39' W 123°27'0 0.0
2019-May-22 12:27N 48°39' W 123°27'0 0.0
2019-May-22 12:00N 48°39' W 123°27'0 0.0
2019-May-22 11:21N 48°39' W 123°27'0 0.0
2019-May-22 11:00N 48°39' W 123°27'0 0.0
2019-May-22 10:30N 48°39' W 123°27'0 0.0
2019-May-22 09:21N 48°39' W 123°27'0 0.0
2019-May-22 08:45N 48°39' W 123°27'0 0.0
2019-May-22 08:27N 48°39' W 123°27'0 0.0
2019-May-22 07:57N 48°39' W 123°27'0 0.0
2019-May-22 07:30N 48°39' W 123°27'0 0.0
2019-May-22 06:51N 48°39' W 123°27'0 0.0
2019-May-22 06:30N 48°39' W 123°27'0 0.0
2019-May-22 06:00N 48°39' W 123°27'0 0.0
2019-May-22 05:30N 48°39' W 123°27'0 0.0
2019-May-22 04:54N 48°39' W 123°27'0 0.0
2019-May-22 04:27N 48°39' W 123°27'0 0.0
2019-May-22 03:54N 48°39' W 123°27'0 0.0
2019-May-22 03:24N 48°39' W 123°27'0 0.0
2019-May-22 01:36N 48°39' W 123°27'0 0.0
2019-May-22 01:27N 48°39' W 123°27'0 0.0
2019-May-22 00:54N 48°39' W 123°27'0 0.0
2019-May-22 00:27N 48°39' W 123°27'0 0.0
2019-May-21 23:57N 48°39' W 123°27'0 0.0
2019-May-21 23:30N 48°39' W 123°27'0 0.0
2019-May-21 22:57N 48°39' W 123°27'0 0.0
2019-May-21 22:30N 48°39' W 123°27'0 0.0
2019-May-21 22:00N 48°39' W 123°27'0 0.0
2019-May-21 21:27N 48°39' W 123°27'0 0.0
2019-May-21 20:54N 48°39' W 123°27'0 0.0
2019-May-21 20:30N 48°39' W 123°27'0 0.0
2019-May-21 20:00N 48°39' W 123°27'0 0.0
2019-May-21 19:18N 48°39' W 123°27'0 0.0
2019-May-21 18:30N 48°39' W 123°27'0 0.0
2019-May-21 17:30N 48°39' W 123°27'0 0.0
2019-May-21 16:48N 48°39' W 123°27'0 0.0
2019-May-21 16:24N 48°39' W 123°27'0 0.0
2019-May-21 15:54N 48°39' W 123°27'0 0.0
2019-May-21 15:30N 48°39' W 123°27'0 0.0
2019-May-21 14:54N 48°39' W 123°27'0 0.0
2019-May-21 14:30N 48°39' W 123°27'0 0.0
2019-May-21 13:57N 48°39' W 123°27'0 0.0
2019-May-21 13:30N 48°39' W 123°27'0 0.0
2019-May-21 12:57N 48°39' W 123°27'0 0.0
2019-May-21 12:30N 48°39' W 123°27'0 0.0
2019-May-21 12:00N 48°39' W 123°27'0 0.0
2019-May-21 11:30N 48°39' W 123°27'0 0.0
2019-May-21 10:51N 48°39' W 123°27'0 0.0
2019-May-21 10:21N 48°39' W 123°27'0 0.0
2019-May-21 09:42N 48°39' W 123°27'0 0.0
2019-May-21 09:30N 48°39' W 123°27'0 0.0
2019-May-21 08:42N 48°39' W 123°27'0 0.0
2019-May-21 08:18N 48°39' W 123°27'0 0.0
2019-May-21 07:57N 48°39' W 123°27'0 0.0
2019-May-21 07:06N 48°39' W 123°27'0 0.0
2019-May-21 06:39N 48°39' W 123°27'0 0.0
2019-May-21 06:30N 48°39' W 123°27'0 0.0
2019-May-21 05:57N 48°39' W 123°27'0 0.0
2019-May-21 05:30N 48°39' W 123°27'0 0.0
2019-May-21 05:00N 48°39' W 123°27'0 0.0
2019-May-21 04:30N 48°39' W 123°27'0 0.0
2019-May-21 03:57N 48°39' W 123°27'0 0.0
2019-May-21 03:24N 48°39' W 123°27'0 0.0
2019-May-21 03:00N 48°39' W 123°27'0 0.0
2019-May-21 02:30N 48°39' W 123°27'0 0.0
2019-May-21 02:00N 48°39' W 123°27'0 0.0
2019-May-21 00:27N 48°39' W 123°27'0 0.0
2019-May-21 00:00N 48°39' W 123°27'0 0.0
2019-May-20 23:21N 48°39' W 123°27'0 0.0
2019-May-20 22:54N 48°39' W 123°27'0 0.0
2019-May-20 22:30N 48°39' W 123°27'0 0.0
2019-May-20 21:42N 48°39' W 123°27'0 0.0
2019-May-20 21:27N 48°39' W 123°27'0 0.0
2019-May-20 20:48N 48°39' W 123°27'0 0.0
2019-May-20 19:33N 48°39' W 123°27'0 0.0
2019-May-20 19:30N 48°39' W 123°27'0 0.0
2019-May-20 18:57N 48°39' W 123°27'0 0.0
2019-May-20 18:24N 48°39' W 123°27'0 0.0
2019-May-20 17:57N 48°39' W 123°27'0 0.0
2019-May-20 17:12N 48°39' W 123°27'0 0.0
2019-May-20 16:57N 48°39' W 123°27'0 0.0
2019-May-20 16:24N 48°39' W 123°27'0 0.0
2019-May-20 16:00N 48°39' W 123°27'0 0.0
2019-May-20 15:30N 48°39' W 123°27'0 0.0
2019-May-20 15:00N 48°39' W 123°27'0 0.0
2019-May-20 14:24N 48°39' W 123°27'0 0.0
2019-May-20 14:00N 48°39' W 123°27'0 0.0
2019-May-20 13:30N 48°39' W 123°27'0 0.0
2019-May-20 12:57N 48°39' W 123°27'0 0.0
2019-May-20 12:30N 48°39' W 123°27'0 0.0
2019-May-20 11:51N 48°39' W 123°27'0 0.0
2019-May-20 11:27N 48°39' W 123°27'0 0.0
2019-May-20 10:45N 48°39' W 123°27'0 0.0
2019-May-20 10:30N 48°39' W 123°27'0 0.0
2019-May-20 10:00N 48°39' W 123°27'0 0.0
2019-May-20 09:24N 48°39' W 123°27'0 0.0
2019-May-20 08:51N 48°39' W 123°27'0 0.0
2019-May-20 08:18N 48°39' W 123°27'0 0.0
2019-May-20 07:48N 48°39' W 123°27'0 0.0
2019-May-20 07:15N 48°39' W 123°27'0 0.0
2019-May-20 06:36N 48°39' W 123°27'0 0.0
2019-May-20 06:21N 48°39' W 123°27'0 0.0
2019-May-20 05:54N 48°39' W 123°27'0 0.0
2019-May-20 05:24N 48°39' W 123°27'0 0.0
2019-May-20 05:00N 48°39' W 123°27'0 0.0
2019-May-20 04:30N 48°39' W 123°27'0 0.0
2019-May-20 03:54N 48°39' W 123°27'0 0.0
2019-May-20 03:24N 48°39' W 123°27'0 0.0
2019-May-20 03:00N 48°39' W 123°27'0 0.0
2019-May-20 02:30N 48°39' W 123°27'0 0.0
2019-May-20 02:00N 48°39' W 123°27'0 0.0
2019-May-20 00:36N 48°39' W 123°27'0 0.0
2019-May-20 00:30N 48°39' W 123°27'0 0.0
2019-May-19 23:54N 48°39' W 123°27'0 0.0
2019-May-19 23:30N 48°39' W 123°27'0 0.0
2019-May-19 23:00N 48°39' W 123°27'0 0.0
2019-May-19 22:30N 48°39' W 123°27'0 0.0
2019-May-19 22:00N 48°39' W 123°27'0 0.0
2019-May-19 21:30N 48°39' W 123°27'0 0.0
2019-May-19 21:00N 48°39' W 123°27'0 0.0
2019-May-19 20:30N 48°39' W 123°27'0 0.1
2019-May-19 20:00N 48°39' W 123°27'1 2.6
2019-May-19 19:30N 48°39' W 123°29'0 0.1
2019-May-19 19:00N 48°39' W 123°29'0 0.1
2019-May-19 18:30N 48°39' W 123°29'0 0.0
2019-May-19 18:00N 48°39' W 123°29'0 0.0
2019-May-19 17:30N 48°39' W 123°29'0 0.0
2019-May-19 17:00N 48°39' W 123°29'0 0.1
2019-May-19 16:30N 48°39' W 123°29'0 0.0
2019-May-19 15:59N 48°39' W 123°29'0 0.0
2019-May-19 15:30N 48°39' W 123°29'0 0.1
2019-May-19 14:59N 48°39' W 123°29'2 4.7
2019-May-19 14:30N 48°41' W 123°30'0 0.0
2019-May-19 14:00N 48°41' W 123°30'0 0.1
2019-May-19 13:30N 48°41' W 123°30'0 0.1
2019-May-19 13:00N 48°41' W 123°30'1 2.4
2019-May-19 12:29N 48°40' W 123°30'0 0.5
2019-May-19 11:55N 48°40' W 123°30'0 0.4
2019-May-19 11:24N 48°40' W 123°30'0 0.2
2019-May-19 11:00N 48°39' W 123°30'0 0.3
2019-May-19 10:30N 48°40' W 123°30'0 0.2
2019-May-19 09:59N 48°39' W 123°30'0 0.1
2019-May-19 09:26N 48°39' W 123°30'0 0.1
2019-May-19 09:00N 48°40' W 123°30'0 0.3
2019-May-19 08:24N 48°40' W 123°30'0 0.3
2019-May-19 07:56N 48°40' W 123°30'0 0.2
2019-May-19 07:28N 48°40' W 123°30'0 0.2
2019-May-19 06:59N 48°40' W 123°30'0 0.2
2019-May-19 06:22N 48°40' W 123°30'0 0.8
2019-May-19 06:00N 48°40' W 123°30'2 3.1
2019-May-19 05:30N 48°41' W 123°30'3 4.9
2019-May-19 04:49N 48°43' W 123°26'2 4.2
2019-May-19 04:23N 48°44' W 123°24'2 6.3
2019-May-19 04:00N 48°45' W 123°20'4 8.1
2019-May-19 03:30N 48°44' W 123°14'4 7.3
2019-May-19 03:00N 48°44' W 123°09'4 7.5
2019-May-19 02:28N 48°46' W 123°03'1 1.3
2019-May-19 01:59N 48°46' W 123°02'1 1.6
2019-May-19 01:30N 48°46' W 123°02'0 0.5
2019-May-19 01:00N 48°46' W 123°02'0 0.7
2019-May-19 00:30N 48°47' W 123°02'3 6.1
2019-May-19 00:00N 48°50' W 123°03'5 9.3
2019-May-18 23:30N 48°53' W 123°08'4 8.8
2019-May-18 23:00N 48°56' W 123°12'4 7.7
2019-May-18 22:30N 48°59' W 123°17'3 6.0
2019-May-18 22:00N 48°59' W 123°21'2 4.2
2019-May-18 21:30N 49°02' W 123°22'3 6.5
2019-May-18 21:00N 49°05' W 123°20'0 0.2
2019-May-18 20:30N 49°05' W 123°20'0 0.0
2019-May-18 20:00N 49°05' W 123°20'0 0.0
2019-May-18 19:30N 49°05' W 123°20'0 0.0
2019-May-18 19:00N 49°05' W 123°20'0 0.0
2019-May-18 18:30N 49°05' W 123°20'0 0.0
2019-May-18 18:00N 49°05' W 123°20'0 0.1
2019-May-18 17:30N 49°05' W 123°20'0 0.0
2019-May-18 17:00N 49°05' W 123°20'3 6.4
2019-May-18 16:30N 49°02' W 123°17'4 8.9
2019-May-18 16:00N 48°59' W 123°12'5 9.1
2019-May-18 15:30N 48°56' W 123°07'4 8.8
2019-May-18 15:00N 48°54' W 123°02'4 8.5
2019-May-18 14:30N 48°50' W 122°60'4 8.0
2019-May-18 14:00N 48°46' W 123°02'4 7.9
2019-May-18 13:30N 48°44' W 123°07'5 9.3
2019-May-18 13:00N 48°42' W 123°13'4 7.3
2019-May-18 12:30N 48°38' W 123°14'4 8.7
2019-May-18 12:00N 48°34' W 123°12'5 9.9
2019-May-18 11:30N 48°29' W 123°11'510.4
2019-May-18 11:00N 48°24' W 123°12'611.9
2019-May-18 10:30N 48°22' W 123°20'811.2
2019-May-18 09:47N 48°15' W 123°27'1211.7
2019-May-18 08:48N 48°13' W 123°44'412.2
2019-May-18 08:30N 48°13' W 123°50'611.9
2019-May-18 07:59N 48°14' W 123°59'511.6
2019-May-18 07:30N 48°16' W 124°06'611.1
2019-May-18 07:00N 48°19' W 124°14'5 9.3
2019-May-18 06:30N 48°21' W 124°20'4 8.4
2019-May-18 06:00N 48°23' W 124°26'4 8.4
2019-May-18 05:30N 48°24' W 124°32'4 8.4
2019-May-18 05:00N 48°26' W 124°37'5 9.3
2019-May-18 04:29N 48°28' W 124°44'510.5
2019-May-18 04:00N 48°28' W 124°52'510.0
2019-May-18 03:30N 48°28' W 124°59'5 9.7
2019-May-18 02:58N 48°28' W 125°07'510.4
2019-May-18 02:30N 48°27' W 125°14'510.7
2019-May-18 02:00N 48°26' W 125°22'711.0
2019-May-18 01:23N 48°24' W 125°32'410.5
2019-May-18 00:59N 48°23' W 125°38'510.7
2019-May-18 00:30N 48°22' W 125°45'610.9
2019-May-17 23:59N 48°20' W 125°54'510.8
2019-May-17 23:30N 48°19' W 126°01'1 2.3
2019-May-17 22:51N 48°19' W 126°04'0 0.1
2019-May-17 22:29N 48°19' W 126°03'0 0.0
2019-May-17 21:58N 48°19' W 126°03'0 0.1
2019-May-17 19:57N 48°19' W 126°03'0 0.0
2019-May-17 17:19N 48°19' W 126°03'0 0.2
2019-May-17 16:47N 48°19' W 126°03'0 0.0
2019-May-17 15:08N 48°19' W 126°03'0 0.1
2019-May-17 15:00N 48°19' W 126°03'0 0.0
2019-May-17 14:29N 48°19' W 126°03'1 1.1
2019-May-17 13:54N 48°19' W 126°04'0 0.2
2019-May-17 13:20N 48°19' W 126°04'0 0.4
2019-May-17 12:56N 48°19' W 126°04'0 0.0
2019-May-17 09:49N 48°19' W 126°04'1 0.2
2019-May-17 03:04N 48°20' W 126°05'1 9.6
2019-May-17 03:00N 48°21' W 126°06'5 9.1
2019-May-17 02:26N 48°25' W 126°10'1 2.1
2019-May-17 01:59N 48°26' W 126°10'0 0.1
2019-May-17 01:30N 48°26' W 126°10'0 0.0
2019-May-17 00:59N 48°26' W 126°10'0 0.0
2019-May-17 00:26N 48°26' W 126°10'0 0.0
2019-May-16 22:54N 48°26' W 126°10'0 0.0
2019-May-16 22:27N 48°26' W 126°10'0 0.0
2019-May-16 20:51N 48°26' W 126°10'0 0.1
2019-May-16 20:04N 48°26' W 126°11'0 0.1
2019-May-16 20:00N 48°26' W 126°11'0 0.2
2019-May-16 19:30N 48°26' W 126°10'0 0.0
2019-May-16 19:00N 48°26' W 126°10'0 0.0
2019-May-16 18:30N 48°26' W 126°10'0 0.0
2019-May-16 16:46N 48°26' W 126°10'0 0.1
2019-May-16 15:34N 48°26' W 126°10'0 0.6
2019-May-16 15:29N 48°26' W 126°10'0 0.0
2019-May-16 14:22N 48°26' W 126°10'0 0.2
2019-May-16 13:58N 48°26' W 126°10'  
Track history (hours):
 
Tides and Currents Weather Stations Pressure Air Temp Water Temp Dewpoint Dewpoint Depression Visibility Wind Speed Wind Dir Waves Ship Positions

Oceanographic research ship John P. Tully (Canada)

Detailed information on ship capabilities available from University of Delaware's Ocean Information Center.

Last reported at 2019-May-25 18:30 UTC. Time now 2019-May-25 18:57 UTC.
Position N 50°55' W 128°54'.

Length 68.9 m; beam 14.5 m; draft 4.5 m.

Type: SAR. MMSI: 316114000.

Date/timePositionNaut miles runAvg speedWind from/ knotsBaromVisibWave heightAir tempDewpointWater temp
2019-May-25 18:30N 50°55' W 128°54'4 7.5
2019-May-25 17:58N 50°54' W 128°48'4 7.8
2019-May-25 17:30N 50°53' W 128°42'1 2.6
2019-May-25 16:58N 50°53' W 128°40'4 7.6
2019-May-25 16:30N 50°55' W 128°44'5 9.4
2019-May-25 16:00N 50°59' W 128°50'2 3.8
2019-May-25 15:30N 50°60' W 128°52'2 3.8
2019-May-25 15:00N 51°01' W 128°49'5 9.1
2019-May-25 14:30N 51°04' W 128°44'1 1.7
2019-May-25 14:00N 51°05' W 128°43'4 8.3
2019-May-25 13:30N 51°07' W 128°38'2 3.5
2019-May-25 13:00N 51°09' W 128°36'1 2.8
2019-May-25 12:30N 51°09' W 128°34'4 8.7
2019-May-25 12:01N 51°12' W 128°29'1 1.5
2019-May-25 11:30N 51°13' W 128°28'0 0.1
2019-May-25 11:01N 51°13' W 128°28'4 8.5
2019-May-25 10:30N 51°15' W 128°23'2 4.0
2019-May-25 10:00N 51°16' W 128°20'1 2.8
2019-May-25 09:30N 51°16' W 128°18'3 6.9
2019-May-25 09:00N 51°13' W 128°14'3 6.9
2019-May-25 08:30N 51°11' W 128°10'4 7.2
2019-May-25 07:55N 51°08' W 128°05'4 7.3
2019-May-25 07:21N 51°06' W 128°00'3 7.3
2019-May-25 06:58N 51°04' W 127°57'4 7.5
2019-May-25 06:30N 51°01' W 127°53'2 3.9
2019-May-25 06:00N 51°00' W 127°50'0 0.1
2019-May-25 05:30N 51°00' W 127°50'3 5.2
2019-May-25 05:00N 50°59' W 127°47'2 4.6
2019-May-25 04:30N 50°57' W 127°44'4 7.1
2019-May-25 04:00N 50°55' W 127°39'4 7.8
2019-May-25 03:30N 50°53' W 127°34'4 7.7
2019-May-25 02:57N 50°51' W 127°28'4 8.0
2019-May-25 02:28N 50°53' W 127°23'2 2.9
2019-May-25 01:49N 50°55' W 127°21'0 0.1
2019-May-25 01:25N 50°55' W 127°21'0 0.0
2019-May-25 00:55N 50°55' W 127°21'0 0.0
2019-May-25 00:13N 50°55' W 127°21'0 0.0
2019-May-24 23:13N 50°55' W 127°21'0 0.0
2019-May-24 22:49N 50°55' W 127°21'0 0.0
2019-May-24 22:25N 50°55' W 127°21'0 0.0
2019-May-24 22:01N 50°55' W 127°21'0 0.0
2019-May-24 21:31N 50°55' W 127°21'4 7.9
2019-May-24 21:00N 50°52' W 127°25'510.2
2019-May-24 20:30N 50°52' W 127°33'510.1
2019-May-24 20:00N 50°55' W 127°39'2 3.4
2019-May-24 19:31N 50°56' W 127°41'1 2.1
2019-May-24 19:01N 50°57' W 127°42'1 1.4
2019-May-24 18:30N 50°56' W 127°41'1 2.8
2019-May-24 18:00N 50°55' W 127°40'4 7.8
2019-May-24 17:30N 50°53' W 127°35'4 8.2
2019-May-24 17:00N 50°51' W 127°29'5 9.2
2019-May-24 16:30N 50°52' W 127°22'3 6.7
2019-May-24 16:00N 50°49' W 127°20'4 7.2
2019-May-24 15:30N 50°47' W 127°16'5 8.8
2019-May-24 14:59N 50°45' W 127°09'6 9.0
2019-May-24 14:17N 50°43' W 126°60'4 9.1
2019-May-24 13:52N 50°41' W 126°54'3 8.3
2019-May-24 13:27N 50°40' W 126°50'6 9.1
2019-May-24 12:48N 50°36' W 126°43'3 9.1
2019-May-24 12:26N 50°32' W 126°41'4 8.9
2019-May-24 12:00N 50°31' W 126°36'5 8.6
2019-May-24 11:27N 50°30' W 126°28'0 0.2
2019-May-24 10:59N 50°30' W 126°28'0 0.6
2019-May-24 10:30N 50°30' W 126°28'28 9.5
2019-May-24 07:32N 50°22' W 125°46'212.1
2019-May-24 07:21N 50°22' W 125°42'1010.7
2019-May-24 06:24N 50°20' W 125°27'4 9.9
2019-May-24 06:00N 50°17' W 125°24'510.0
2019-May-24 05:30N 50°12' W 125°22'510.0
2019-May-24 05:01N 50°07' W 125°20'5 9.8
2019-May-24 04:30N 50°04' W 125°15'4 8.9
2019-May-24 04:00N 49°60' W 125°12'510.1
2019-May-24 03:29N 49°56' W 125°06'611.0
2019-May-24 02:59N 49°52' W 124°60'510.8
2019-May-24 02:30N 49°49' W 124°53'4 7.8
2019-May-24 02:01N 49°47' W 124°48'1 2.9
2019-May-24 01:30N 49°48' W 124°50'2 3.4
2019-May-24 01:01N 49°49' W 124°52'1 1.8
2019-May-24 00:30N 49°49' W 124°50'3 6.9
2019-May-24 00:00N 49°47' W 124°46'4 8.6
2019-May-23 23:30N 49°44' W 124°41'0 0.9
2019-May-23 22:59N 49°44' W 124°41'0 0.1
2019-May-23 22:30N 49°44' W 124°41'4 8.2
2019-May-23 21:59N 49°40' W 124°37'5 9.6
2019-May-23 21:30N 49°36' W 124°34'6 9.6
2019-May-23 20:54N 49°31' W 124°29'3 7.9
2019-May-23 20:30N 49°28' W 124°30'0 0.0
2019-May-23 19:57N 49°28' W 124°30'1 1.8
2019-May-23 19:30N 49°29' W 124°29'5 9.3
2019-May-23 18:59N 49°32' W 124°25'11 8.4
2019-May-23 17:43N 49°29' W 124°09'2 7.6
2019-May-23 17:30N 49°29' W 124°07'5 9.8
2019-May-23 17:00N 49°34' W 124°09'5 9.7
2019-May-23 16:30N 49°37' W 124°14'3 6.0
2019-May-23 15:59N 49°40' W 124°16'0 0.1
2019-May-23 15:30N 49°40' W 124°16'1 1.9
2019-May-23 14:57N 49°40' W 124°15'4 8.0
2019-May-23 14:26N 49°36' W 124°11'4 8.0
2019-May-23 14:00N 49°33' W 124°08'5 7.8
2019-May-23 13:22N 49°29' W 124°05'3 7.9
2019-May-23 13:00N 49°26' W 124°05'4 8.3
2019-May-23 12:30N 49°22' W 124°05'0 0.4
2019-May-23 12:00N 49°22' W 124°05'1 1.3
2019-May-23 11:30N 49°22' W 124°04'4 8.2
2019-May-23 11:01N 49°20' W 123°58'4 7.8
2019-May-23 10:30N 49°18' W 123°53'4 7.8
2019-May-23 10:01N 49°16' W 123°48'2 4.6
2019-May-23 09:30N 49°15' W 123°45'0 0.2
2019-May-23 09:01N 49°15' W 123°45'0 0.3
2019-May-23 08:31N 49°15' W 123°45'2 4.4
2019-May-23 08:00N 49°13' W 123°43'5 9.1
2019-May-23 07:30N 49°10' W 123°38'5 9.1
2019-May-23 07:00N 49°07' W 123°33'5 9.3
2019-May-23 06:30N 49°03' W 123°29'2 4.7
2019-May-23 06:00N 49°02' W 123°26'0 0.2
2019-May-23 05:30N 49°02' W 123°26'0 0.2
2019-May-23 05:00N 49°02' W 123°26'4 8.0
2019-May-23 04:30N 48°59' W 123°22'4 9.0
2019-May-23 04:00N 48°56' W 123°17'5 9.0
2019-May-23 03:30N 48°53' W 123°11'5 9.2
2019-May-23 03:01N 48°50' W 123°06'5 9.3
2019-May-23 02:30N 48°48' W 122°60'713.3
2019-May-23 02:00N 48°44' W 123°08'611.5
2019-May-23 01:30N 48°40' W 123°15'713.0
2019-May-23 01:00N 48°34' W 123°12'612.7
2019-May-23 00:31N 48°28' W 123°10'713.3
2019-May-23 00:01N 48°23' W 123°16'3 6.6
2019-May-22 23:30N 48°23' W 123°21'4 7.5
2019-May-22 23:00N 48°24' W 123°16'3 6.6
2019-May-22 22:30N 48°26' W 123°12'611.3
2019-May-22 22:00N 48°32' W 123°13'510.4
2019-May-22 21:30N 48°37' W 123°15'0 0.8
2019-May-22 21:00N 48°36' W 123°14'0 0.8
2019-May-22 20:29N 48°37' W 123°15'4 8.7
2019-May-22 20:00N 48°41' W 123°16'5 9.3
2019-May-22 19:30N 48°45' W 123°20'610.9
2019-May-22 18:58N 48°42' W 123°29'3 6.3
2019-May-22 18:29N 48°40' W 123°30'0 0.9
2019-May-22 17:59N 48°40' W 123°29'2 3.2
2019-May-22 17:30N 48°39' W 123°27'0 0.0
2019-May-22 16:42N 48°39' W 123°27'0 0.0
2019-May-22 16:21N 48°39' W 123°27'0 0.0
2019-May-22 15:58N 48°39' W 123°27'0 0.0
2019-May-22 15:25N 48°39' W 123°27'0 0.0
2019-May-22 14:58N 48°39' W 123°27'0 0.0
2019-May-22 14:30N 48°39' W 123°27'0 0.0
2019-May-22 14:00N 48°39' W 123°27'0 0.0
2019-May-22 13:30N 48°39' W 123°27'0 0.0
2019-May-22 13:00N 48°39' W 123°27'0 0.0
2019-May-22 12:27N 48°39' W 123°27'0 0.0
2019-May-22 12:00N 48°39' W 123°27'0 0.0
2019-May-22 11:21N 48°39' W 123°27'0 0.0
2019-May-22 11:00N 48°39' W 123°27'0 0.0
2019-May-22 10:30N 48°39' W 123°27'0 0.0
2019-May-22 09:21N 48°39' W 123°27'0 0.0
2019-May-22 08:45N 48°39' W 123°27'0 0.0
2019-May-22 08:27N 48°39' W 123°27'0 0.0
2019-May-22 07:57N 48°39' W 123°27'0 0.0
2019-May-22 07:30N 48°39' W 123°27'0 0.0
2019-May-22 06:51N 48°39' W 123°27'0 0.0
2019-May-22 06:30N 48°39' W 123°27'0 0.0
2019-May-22 06:00N 48°39' W 123°27'0 0.0
2019-May-22 05:30N 48°39' W 123°27'0 0.0
2019-May-22 04:54N 48°39' W 123°27'0 0.0
2019-May-22 04:27N 48°39' W 123°27'0 0.0
2019-May-22 03:54N 48°39' W 123°27'0 0.0
2019-May-22 03:24N 48°39' W 123°27'0 0.0
2019-May-22 01:36N 48°39' W 123°27'0 0.0
2019-May-22 01:27N 48°39' W 123°27'0 0.0
2019-May-22 00:54N 48°39' W 123°27'0 0.0
2019-May-22 00:27N 48°39' W 123°27'0 0.0
2019-May-21 23:57N 48°39' W 123°27'0 0.0
2019-May-21 23:30N 48°39' W 123°27'0 0.0
2019-May-21 22:57N 48°39' W 123°27'0 0.0
2019-May-21 22:30N 48°39' W 123°27'0 0.0
2019-May-21 22:00N 48°39' W 123°27'0 0.0
2019-May-21 21:27N 48°39' W 123°27'0 0.0
2019-May-21 20:54N 48°39' W 123°27'0 0.0
2019-May-21 20:30N 48°39' W 123°27'0 0.0
2019-May-21 20:00N 48°39' W 123°27'0 0.0
2019-May-21 19:18N 48°39' W 123°27'0 0.0
2019-May-21 18:30N 48°39' W 123°27'0 0.0
2019-May-21 17:30N 48°39' W 123°27'0 0.0
2019-May-21 16:48N 48°39' W 123°27'0 0.0
2019-May-21 16:24N 48°39' W 123°27'0 0.0
2019-May-21 15:54N 48°39' W 123°27'0 0.0
2019-May-21 15:30N 48°39' W 123°27'0 0.0
2019-May-21 14:54N 48°39' W 123°27'0 0.0
2019-May-21 14:30N 48°39' W 123°27'0 0.0
2019-May-21 13:57N 48°39' W 123°27'0 0.0
2019-May-21 13:30N 48°39' W 123°27'0 0.0
2019-May-21 12:57N 48°39' W 123°27'0 0.0
2019-May-21 12:30N 48°39' W 123°27'0 0.0
2019-May-21 12:00N 48°39' W 123°27'0 0.0
2019-May-21 11:30N 48°39' W 123°27'0 0.0
2019-May-21 10:51N 48°39' W 123°27'0 0.0
2019-May-21 10:21N 48°39' W 123°27'0 0.0
2019-May-21 09:42N 48°39' W 123°27'0 0.0
2019-May-21 09:30N 48°39' W 123°27'0 0.0
2019-May-21 08:42N 48°39' W 123°27'0 0.0
2019-May-21 08:18N 48°39' W 123°27'0 0.0
2019-May-21 07:57N 48°39' W 123°27'0 0.0
2019-May-21 07:06N 48°39' W 123°27'0 0.0
2019-May-21 06:39N 48°39' W 123°27'0 0.0
2019-May-21 06:30N 48°39' W 123°27'0 0.0
2019-May-21 05:57N 48°39' W 123°27'0 0.0
2019-May-21 05:30N 48°39' W 123°27'0 0.0
2019-May-21 05:00N 48°39' W 123°27'0 0.0
2019-May-21 04:30N 48°39' W 123°27'0 0.0
2019-May-21 03:57N 48°39' W 123°27'0 0.0
2019-May-21 03:24N 48°39' W 123°27'0 0.0
2019-May-21 03:00N 48°39' W 123°27'0 0.0
2019-May-21 02:30N 48°39' W 123°27'0 0.0
2019-May-21 02:00N 48°39' W 123°27'0 0.0
2019-May-21 00:27N 48°39' W 123°27'0 0.0
2019-May-21 00:00N 48°39' W 123°27'0 0.0
2019-May-20 23:21N 48°39' W 123°27'0 0.0
2019-May-20 22:54N 48°39' W 123°27'0 0.0
2019-May-20 22:30N 48°39' W 123°27'0 0.0
2019-May-20 21:42N 48°39' W 123°27'0 0.0
2019-May-20 21:27N 48°39' W 123°27'0 0.0
2019-May-20 20:48N 48°39' W 123°27'0 0.0
2019-May-20 19:33N 48°39' W 123°27'0 0.0
2019-May-20 19:30N 48°39' W 123°27'0 0.0
2019-May-20 18:57N 48°39' W 123°27'0 0.0
2019-May-20 18:24N 48°39' W 123°27'0 0.0
2019-May-20 17:57N 48°39' W 123°27'0 0.0
2019-May-20 17:12N 48°39' W 123°27'0 0.0
2019-May-20 16:57N 48°39' W 123°27'0 0.0
2019-May-20 16:24N 48°39' W 123°27'0 0.0
2019-May-20 16:00N 48°39' W 123°27'0 0.0
2019-May-20 15:30N 48°39' W 123°27'0 0.0
2019-May-20 15:00N 48°39' W 123°27'0 0.0
2019-May-20 14:24N 48°39' W 123°27'0 0.0
2019-May-20 14:00N 48°39' W 123°27'0 0.0
2019-May-20 13:30N 48°39' W 123°27'0 0.0
2019-May-20 12:57N 48°39' W 123°27'0 0.0
2019-May-20 12:30N 48°39' W 123°27'0 0.0
2019-May-20 11:51N 48°39' W 123°27'0 0.0
2019-May-20 11:27N 48°39' W 123°27'0 0.0
2019-May-20 10:45N 48°39' W 123°27'0 0.0
2019-May-20 10:30N 48°39' W 123°27'0 0.0
2019-May-20 10:00N 48°39' W 123°27'0 0.0
2019-May-20 09:24N 48°39' W 123°27'0 0.0
2019-May-20 08:51N 48°39' W 123°27'0 0.0
2019-May-20 08:18N 48°39' W 123°27'0 0.0
2019-May-20 07:48N 48°39' W 123°27'0 0.0
2019-May-20 07:15N 48°39' W 123°27'0 0.0
2019-May-20 06:36N 48°39' W 123°27'0 0.0
2019-May-20 06:21N 48°39' W 123°27'0 0.0
2019-May-20 05:54N 48°39' W 123°27'0 0.0
2019-May-20 05:24N 48°39' W 123°27'0 0.0
2019-May-20 05:00N 48°39' W 123°27'0 0.0
2019-May-20 04:30N 48°39' W 123°27'0 0.0
2019-May-20 03:54N 48°39' W 123°27'0 0.0
2019-May-20 03:24N 48°39' W 123°27'0 0.0
2019-May-20 03:00N 48°39' W 123°27'0 0.0
2019-May-20 02:30N 48°39' W 123°27'0 0.0
2019-May-20 02:00N 48°39' W 123°27'0 0.0
2019-May-20 00:36N 48°39' W 123°27'0 0.0
2019-May-20 00:30N 48°39' W 123°27'0 0.0
2019-May-19 23:54N 48°39' W 123°27'0 0.0
2019-May-19 23:30N 48°39' W 123°27'0 0.0
2019-May-19 23:00N 48°39' W 123°27'0 0.0
2019-May-19 22:30N 48°39' W 123°27'0 0.0
2019-May-19 22:00N 48°39' W 123°27'0 0.0
2019-May-19 21:30N 48°39' W 123°27'0 0.0
2019-May-19 21:00N 48°39' W 123°27'0 0.0
2019-May-19 20:30N 48°39' W 123°27'0 0.1
2019-May-19 20:00N 48°39' W 123°27'1 2.6
2019-May-19 19:30N 48°39' W 123°29'0 0.1
2019-May-19 19:00N 48°39' W 123°29'0 0.1
2019-May-19 18:30N 48°39' W 123°29'0 0.0
2019-May-19 18:00N 48°39' W 123°29'0 0.0
2019-May-19 17:30N 48°39' W 123°29'0 0.0
2019-May-19 17:00N 48°39' W 123°29'0 0.1
2019-May-19 16:30N 48°39' W 123°29'0 0.0
2019-May-19 15:59N 48°39' W 123°29'0 0.0
2019-May-19 15:30N 48°39' W 123°29'0 0.1
2019-May-19 14:59N 48°39' W 123°29'2 4.7
2019-May-19 14:30N 48°41' W 123°30'0 0.0
2019-May-19 14:00N 48°41' W 123°30'0 0.1
2019-May-19 13:30N 48°41' W 123°30'0 0.1
2019-May-19 13:00N 48°41' W 123°30'1 2.4
2019-May-19 12:29N 48°40' W 123°30'0 0.5
2019-May-19 11:55N 48°40' W 123°30'0 0.4
2019-May-19 11:24N 48°40' W 123°30'0 0.2
2019-May-19 11:00N 48°39' W 123°30'0 0.3
2019-May-19 10:30N 48°40' W 123°30'0 0.2
2019-May-19 09:59N 48°39' W 123°30'0 0.1
2019-May-19 09:26N 48°39' W 123°30'0 0.1
2019-May-19 09:00N 48°40' W 123°30'0 0.3
2019-May-19 08:24N 48°40' W 123°30'0 0.3
2019-May-19 07:56N 48°40' W 123°30'0 0.2
2019-May-19 07:28N 48°40' W 123°30'0 0.2
2019-May-19 06:59N 48°40' W 123°30'0 0.2
2019-May-19 06:22N 48°40' W 123°30'0 0.8
2019-May-19 06:00N 48°40' W 123°30'2 3.1
2019-May-19 05:30N 48°41' W 123°30'3 4.9
2019-May-19 04:49N 48°43' W 123°26'2 4.2
2019-May-19 04:23N 48°44' W 123°24'2 6.3
2019-May-19 04:00N 48°45' W 123°20'4 8.1
2019-May-19 03:30N 48°44' W 123°14'4 7.3
2019-May-19 03:00N 48°44' W 123°09'4 7.5
2019-May-19 02:28N 48°46' W 123°03'1 1.3
2019-May-19 01:59N 48°46' W 123°02'1 1.6
2019-May-19 01:30N 48°46' W 123°02'0 0.5
2019-May-19 01:00N 48°46' W 123°02'0 0.7
2019-May-19 00:30N 48°47' W 123°02'3 6.1
2019-May-19 00:00N 48°50' W 123°03'5 9.3
2019-May-18 23:30N 48°53' W 123°08'4 8.8
2019-May-18 23:00N 48°56' W 123°12'4 7.7
2019-May-18 22:30N 48°59' W 123°17'3 6.0
2019-May-18 22:00N 48°59' W 123°21'2 4.2
2019-May-18 21:30N 49°02' W 123°22'3 6.5
2019-May-18 21:00N 49°05' W 123°20'0 0.2
2019-May-18 20:30N 49°05' W 123°20'0 0.0
2019-May-18 20:00N 49°05' W 123°20'0 0.0
2019-May-18 19:30N 49°05' W 123°20'0 0.0
2019-May-18 19:00N 49°05' W 123°20'0 0.0
2019-May-18 18:30N 49°05' W 123°20'0 0.0
2019-May-18 18:00N 49°05' W 123°20'0 0.1
2019-May-18 17:30N 49°05' W 123°20'0 0.0
2019-May-18 17:00N 49°05' W 123°20'3 6.4
2019-May-18 16:30N 49°02' W 123°17'4 8.9
2019-May-18 16:00N 48°59' W 123°12'5 9.1
2019-May-18 15:30N 48°56' W 123°07'4 8.8
2019-May-18 15:00N 48°54' W 123°02'4 8.5
2019-May-18 14:30N 48°50' W 122°60'4 8.0
2019-May-18 14:00N 48°46' W 123°02'4 7.9
2019-May-18 13:30N 48°44' W 123°07'5 9.3
2019-May-18 13:00N 48°42' W 123°13'4 7.3
2019-May-18 12:30N 48°38' W 123°14'4 8.7
2019-May-18 12:00N 48°34' W 123°12'5 9.9
2019-May-18 11:30N 48°29' W 123°11'510.4
2019-May-18 11:00N 48°24' W 123°12'611.9
2019-May-18 10:30N 48°22' W 123°20'811.2
2019-May-18 09:47N 48°15' W 123°27'1211.7
2019-May-18 08:48N 48°13' W 123°44'412.2
2019-May-18 08:30N 48°13' W 123°50'611.9
2019-May-18 07:59N 48°14' W 123°59'511.6
2019-May-18 07:30N 48°16' W 124°06'611.1
2019-May-18 07:00N 48°19' W 124°14'5 9.3
2019-May-18 06:30N 48°21' W 124°20'4 8.4
2019-May-18 06:00N 48°23' W 124°26'4 8.4
2019-May-18 05:30N 48°24' W 124°32'4 8.4
2019-May-18 05:00N 48°26' W 124°37'5 9.3
2019-May-18 04:29N 48°28' W 124°44'510.5
2019-May-18 04:00N 48°28' W 124°52'510.0
2019-May-18 03:30N 48°28' W 124°59'5 9.7
2019-May-18 02:58N 48°28' W 125°07'510.4
2019-May-18 02:30N 48°27' W 125°14'510.7
2019-May-18 02:00N 48°26' W 125°22'711.0
2019-May-18 01:23N 48°24' W 125°32'410.5
2019-May-18 00:59N 48°23' W 125°38'510.7
2019-May-18 00:30N 48°22' W 125°45'610.9
2019-May-17 23:59N 48°20' W 125°54'510.8
2019-May-17 23:30N 48°19' W 126°01'1 2.3
2019-May-17 22:51N 48°19' W 126°04'0 0.1
2019-May-17 22:29N 48°19' W 126°03'0 0.0
2019-May-17 21:58N 48°19' W 126°03'0 0.1
2019-May-17 19:57N 48°19' W 126°03'0 0.0
2019-May-17 17:19N 48°19' W 126°03'0 0.2
2019-May-17 16:47N 48°19' W 126°03'0 0.0
2019-May-17 15:08N 48°19' W 126°03'0 0.1
2019-May-17 15:00N 48°19' W 126°03'0 0.0
2019-May-17 14:29N 48°19' W 126°03'1 1.1
2019-May-17 13:54N 48°19' W 126°04'0 0.2
2019-May-17 13:20N 48°19' W 126°04'0 0.4
2019-May-17 12:56N 48°19' W 126°04'0 0.0
2019-May-17 09:49N 48°19' W 126°04'1 0.2
2019-May-17 03:04N 48°20' W 126°05'1 9.6
2019-May-17 03:00N 48°21' W 126°06'5 9.1
2019-May-17 02:26N 48°25' W 126°10'1 2.1
2019-May-17 01:59N 48°26' W 126°10'0 0.1
2019-May-17 01:30N 48°26' W 126°10'0 0.0
2019-May-17 00:59N 48°26' W 126°10'0 0.0
2019-May-17 00:26N 48°26' W 126°10'0 0.0
2019-May-16 22:54N 48°26' W 126°10'0 0.0
2019-May-16 22:27N 48°26' W 126°10'0 0.0
2019-May-16 20:51N 48°26' W 126°10'0 0.1
2019-May-16 20:04N 48°26' W 126°11'0 0.1
2019-May-16 20:00N 48°26' W 126°11'0 0.2
2019-May-16 19:30N 48°26' W 126°10'0 0.0
2019-May-16 19:00N 48°26' W 126°10'0 0.0
2019-May-16 18:30N 48°26' W 126°10'0 0.0
2019-May-16 16:46N 48°26' W 126°10'0 0.1
2019-May-16 15:34N 48°26' W 126°10'0 0.6
2019-May-16 15:29N 48°26' W 126°10'0 0.0
2019-May-16 14:22N 48°26' W 126°10'0 0.2
2019-May-16 13:58N 48°26' W 126°10'  

Dump ship's entire track history